sensor_id;sensor_type;location;lat;lon;timestamp;temperature;humidity
35541;DHT22;21650;48.840;9.162;2023-01-30T00:00:53;-2.20;99.90
35541;DHT22;21650;48.840;9.162;2023-01-30T00:03:20;-2.30;99.90
35541;DHT22;21650;48.840;9.162;2023-01-30T00:05:46;-2.30;99.90
35541;DHT22;21650;48.840;9.162;2023-01-30T00:08:12;-2.30;99.90
35541;DHT22;21650;48.840;9.162;2023-01-30T00:10:37;-2.30;99.90
35541;DHT22;21650;48.840;9.162;2023-01-30T00:13:03;-2.30;99.90
35541;DHT22;21650;48.840;9.162;2023-01-30T00:15:28;-2.30;99.90
35541;DHT22;21650;48.840;9.162;2023-01-30T00:17:54;-2.30;99.90
35541;DHT22;21650;48.840;9.162;2023-01-30T00:20:20;-2.20;99.90
35541;DHT22;21650;48.840;9.162;2023-01-30T00:22:45;-2.20;99.90
35541;DHT22;21650;48.840;9.162;2023-01-30T00:25:11;-2.20;99.90
35541;DHT22;21650;48.840;9.162;2023-01-30T00:27:36;-2.20;99.90
35541;DHT22;21650;48.840;9.162;2023-01-30T00:30:02;-2.20;99.90
35541;DHT22;21650;48.840;9.162;2023-01-30T00:32:30;-2.10;99.90
35541;DHT22;21650;48.840;9.162;2023-01-30T00:34:56;-2.10;99.90
35541;DHT22;21650;48.840;9.162;2023-01-30T00:37:21;-2.10;99.90
35541;DHT22;21650;48.840;9.162;2023-01-30T00:39:47;-2.10;99.90
35541;DHT22;21650;48.840;9.162;2023-01-30T00:42:12;-2.20;99.90
35541;DHT22;21650;48.840;9.162;2023-01-30T00:44:57;-2.20;99.90
35541;DHT22;21650;48.840;9.162;2023-01-30T00:47:41;-2.30;99.90
35541;DHT22;21650;48.840;9.162;2023-01-30T00:50:07;-2.30;99.90
35541;DHT22;21650;48.840;9.162;2023-01-30T00:52:32;-2.20;99.90
35541;DHT22;21650;48.840;9.162;2023-01-30T00:54:58;-2.20;99.90
35541;DHT22;21650;48.840;9.162;2023-01-30T00:57:24;-2.30;99.90
35541;DHT22;21650;48.840;9.162;2023-01-30T00:59:49;-2.30;99.90
35541;DHT22;21650;48.840;9.162;2023-01-30T01:02:15;-2.20;99.90
35541;DHT22;21650;48.840;9.162;2023-01-30T01:04:41;-2.20;99.90
35541;DHT22;21650;48.840;9.162;2023-01-30T01:07:10;-2.00;99.90
35541;DHT22;21650;48.840;9.162;2023-01-30T01:09:36;-2.00;99.90
35541;DHT22;21650;48.840;9.162;2023-01-30T01:12:02;-1.90;99.90
35541;DHT22;21650;48.840;9.162;2023-01-30T01:14:28;-1.80;99.90
35541;DHT22;21650;48.840;9.162;2023-01-30T01:16:53;-1.80;99.90
35541;DHT22;21650;48.840;9.162;2023-01-30T01:19:19;-1.80;99.90
35541;DHT22;21650;48.840;9.162;2023-01-30T01:21:44;-1.80;99.90
35541;DHT22;21650;48.840;9.162;2023-01-30T01:24:15;-1.80;99.90
35541;DHT22;21650;48.840;9.162;2023-01-30T01:26:41;-1.80;99.90
35541;DHT22;21650;48.840;9.162;2023-01-30T01:29:12;-1.70;99.90
35541;DHT22;21650;48.840;9.162;2023-01-30T01:31:38;-1.70;99.90
35541;DHT22;21650;48.840;9.162;2023-01-30T01:34:03;-1.80;99.90
35541;DHT22;21650;48.840;9.162;2023-01-30T01:36:29;-1.80;99.90
35541;DHT22;21650;48.840;9.162;2023-01-30T01:38:54;-1.70;99.90
35541;DHT22;21650;48.840;9.162;2023-01-30T01:41:20;-1.70;99.90
35541;DHT22;21650;48.840;9.162;2023-01-30T01:44:08;-1.70;99.90
35541;DHT22;21650;48.840;9.162;2023-01-30T01:46:45;-1.80;99.90
35541;DHT22;21650;48.840;9.162;2023-01-30T01:49:32;-1.80;99.90
35541;DHT22;21650;48.840;9.162;2023-01-30T01:52:04;-1.70;99.90
35541;DHT22;21650;48.840;9.162;2023-01-30T01:57:11;-1.70;99.90
35541;DHT22;21650;48.840;9.162;2023-01-30T01:59:45;-1.80;99.90
35541;DHT22;21650;48.840;9.162;2023-01-30T02:02:14;-1.80;99.90
35541;DHT22;21650;48.840;9.162;2023-01-30T02:04:44;-1.80;99.90
35541;DHT22;21650;48.840;9.162;2023-01-30T02:07:28;-1.80;99.90
35541;DHT22;21650;48.840;9.162;2023-01-30T02:09:57;-1.80;99.90
35541;DHT22;21650;48.840;9.162;2023-01-30T02:12:23;-1.80;99.90
35541;DHT22;21650;48.840;9.162;2023-01-30T02:14:50;-1.80;99.90
35541;DHT22;21650;48.840;9.162;2023-01-30T02:17:18;-1.80;99.90
35541;DHT22;21650;48.840;9.162;2023-01-30T02:21:01;-1.80;99.90
35541;DHT22;21650;48.840;9.162;2023-01-30T02:29:16;-1.90;99.90
35541;DHT22;21650;48.840;9.162;2023-01-30T02:31:56;-1.90;99.90
35541;DHT22;21650;48.840;9.162;2023-01-30T02:34:37;-1.90;99.90
35541;DHT22;21650;48.840;9.162;2023-01-30T02:45:42;-1.90;99.90
35541;DHT22;21650;48.840;9.162;2023-01-30T02:48:28;-1.90;99.90
35541;DHT22;21650;48.840;9.162;2023-01-30T02:51:06;-1.90;99.90
35541;DHT22;21650;48.840;9.162;2023-01-30T02:53:35;-1.90;99.90
35541;DHT22;21650;48.840;9.162;2023-01-30T02:56:01;-1.90;99.90
35541;DHT22;21650;48.840;9.162;2023-01-30T02:58:32;-1.90;99.90
35541;DHT22;21650;48.840;9.162;2023-01-30T03:01:16;-1.90;99.90
35541;DHT22;21650;48.840;9.162;2023-01-30T03:06:34;-1.80;99.90
35541;DHT22;21650;48.840;9.162;2023-01-30T03:14:58;-1.70;99.90
35541;DHT22;21650;48.840;9.162;2023-01-30T03:17:26;-1.60;99.90
35541;DHT22;21650;48.840;9.162;2023-01-30T03:19:53;-1.60;99.90
35541;DHT22;21650;48.840;9.162;2023-01-30T03:22:20;-1.50;99.90
35541;DHT22;21650;48.840;9.162;2023-01-30T03:24:46;-1.50;99.90
35541;DHT22;21650;48.840;9.162;2023-01-30T03:27:12;-1.40;99.90
35541;DHT22;21650;48.840;9.162;2023-01-30T03:29:39;-1.40;99.90
35541;DHT22;21650;48.840;9.162;2023-01-30T03:32:05;-1.30;99.90
35541;DHT22;21650;48.840;9.162;2023-01-30T03:34:31;-1.30;99.90
35541;DHT22;21650;48.840;9.162;2023-01-30T03:36:57;-1.20;99.90
35541;DHT22;21650;48.840;9.162;2023-01-30T03:39:23;-1.20;99.90
35541;DHT22;21650;48.840;9.162;2023-01-30T03:41:50;-1.20;99.90
35541;DHT22;21650;48.840;9.162;2023-01-30T03:44:16;-1.10;99.90
35541;DHT22;21650;48.840;9.162;2023-01-30T03:46:41;-1.10;99.90
35541;DHT22;21650;48.840;9.162;2023-01-30T03:49:07;-1.10;99.90
35541;DHT22;21650;48.840;9.162;2023-01-30T03:51:33;-1.00;99.90
35541;DHT22;21650;48.840;9.162;2023-01-30T03:53:58;-1.00;99.90
35541;DHT22;21650;48.840;9.162;2023-01-30T03:56:24;-1.00;99.90
35541;DHT22;21650;48.840;9.162;2023-01-30T03:58:50;-0.90;99.90
35541;DHT22;21650;48.840;9.162;2023-01-30T04:01:15;-0.90;99.90
35541;DHT22;21650;48.840;9.162;2023-01-30T04:03:41;-0.90;99.90
35541;DHT22;21650;48.840;9.162;2023-01-30T04:06:06;-0.90;99.90
35541;DHT22;21650;48.840;9.162;2023-01-30T04:08:32;-0.70;99.90
35541;DHT22;21650;48.840;9.162;2023-01-30T04:10:58;-0.70;99.90
35541;DHT22;21650;48.840;9.162;2023-01-30T04:13:23;-0.60;99.90
35541;DHT22;21650;48.840;9.162;2023-01-30T04:15:49;-0.50;99.90
35541;DHT22;21650;48.840;9.162;2023-01-30T04:18:14;-0.50;99.90
35541;DHT22;21650;48.840;9.162;2023-01-30T04:20:40;-0.50;99.90
35541;DHT22;21650;48.840;9.162;2023-01-30T04:23:06;-0.50;99.90
35541;DHT22;21650;48.840;9.162;2023-01-30T04:25:31;-0.50;99.90
35541;DHT22;21650;48.840;9.162;2023-01-30T04:27:57;-0.40;99.90
35541;DHT22;21650;48.840;9.162;2023-01-30T04:30:22;-0.50;99.90
35541;DHT22;21650;48.840;9.162;2023-01-30T04:32:48;-0.40;99.90
35541;DHT22;21650;48.840;9.162;2023-01-30T04:35:14;-0.30;99.90
35541;DHT22;21650;48.840;9.162;2023-01-30T04:37:39;-0.30;99.90
35541;DHT22;21650;48.840;9.162;2023-01-30T04:40:05;-0.10;99.90
35541;DHT22;21650;48.840;9.162;2023-01-30T04:42:31;-0.10;99.90
35541;DHT22;21650;48.840;9.162;2023-01-30T04:44:57;-0.10;99.90
35541;DHT22;21650;48.840;9.162;2023-01-30T04:47:22;-0.10;99.90
35541;DHT22;21650;48.840;9.162;2023-01-30T04:49:48;0.00;99.90
35541;DHT22;21650;48.840;9.162;2023-01-30T04:52:13;0.00;99.90
35541;DHT22;21650;48.840;9.162;2023-01-30T04:54:39;0.10;99.90
35541;DHT22;21650;48.840;9.162;2023-01-30T04:57:05;0.10;99.90
35541;DHT22;21650;48.840;9.162;2023-01-30T04:59:30;0.20;99.90
35541;DHT22;21650;48.840;9.162;2023-01-30T05:01:56;0.20;99.90
35541;DHT22;21650;48.840;9.162;2023-01-30T05:04:21;0.20;99.90
35541;DHT22;21650;48.840;9.162;2023-01-30T05:06:47;0.20;99.90
35541;DHT22;21650;48.840;9.162;2023-01-30T05:09:13;0.30;99.90
35541;DHT22;21650;48.840;9.162;2023-01-30T05:11:38;0.30;99.90
35541;DHT22;21650;48.840;9.162;2023-01-30T05:14:04;0.30;99.90
35541;DHT22;21650;48.840;9.162;2023-01-30T05:16:29;0.30;99.90
35541;DHT22;21650;48.840;9.162;2023-01-30T05:18:55;0.30;99.90
35541;DHT22;21650;48.840;9.162;2023-01-30T05:21:23;0.30;99.90
35541;DHT22;21650;48.840;9.162;2023-01-30T05:23:51;0.30;99.90
35541;DHT22;21650;48.840;9.162;2023-01-30T05:26:18;0.30;99.90
35541;DHT22;21650;48.840;9.162;2023-01-30T05:28:43;0.20;99.90
35541;DHT22;21650;48.840;9.162;2023-01-30T05:31:11;0.20;99.90
35541;DHT22;21650;48.840;9.162;2023-01-30T05:33:38;0.30;99.90
35541;DHT22;21650;48.840;9.162;2023-01-30T05:36:05;0.30;99.90
35541;DHT22;21650;48.840;9.162;2023-01-30T05:38:31;0.30;99.90
35541;DHT22;21650;48.840;9.162;2023-01-30T05:40:58;0.40;99.90
35541;DHT22;21650;48.840;9.162;2023-01-30T05:43:24;0.40;99.90
35541;DHT22;21650;48.840;9.162;2023-01-30T05:45:53;0.40;99.90
35541;DHT22;21650;48.840;9.162;2023-01-30T05:48:20;0.40;99.90
35541;DHT22;21650;48.840;9.162;2023-01-30T05:50:48;0.40;99.90
35541;DHT22;21650;48.840;9.162;2023-01-30T05:53:14;0.40;99.90
35541;DHT22;21650;48.840;9.162;2023-01-30T05:55:39;0.30;99.90
35541;DHT22;21650;48.840;9.162;2023-01-30T05:58:05;0.30;99.90
35541;DHT22;21650;48.840;9.162;2023-01-30T06:00:30;0.40;99.90
35541;DHT22;21650;48.840;9.162;2023-01-30T06:02:56;0.40;99.90
35541;DHT22;21650;48.840;9.162;2023-01-30T06:05:22;0.40;99.90
35541;DHT22;21650;48.840;9.162;2023-01-30T06:07:47;0.50;99.90
35541;DHT22;21650;48.840;9.162;2023-01-30T06:10:13;0.50;99.90
35541;DHT22;21650;48.840;9.162;2023-01-30T06:12:38;0.50;99.90
35541;DHT22;21650;48.840;9.162;2023-01-30T06:15:05;0.50;99.90
35541;DHT22;21650;48.840;9.162;2023-01-30T06:17:30;0.50;99.90
35541;DHT22;21650;48.840;9.162;2023-01-30T06:19:56;0.50;99.90
35541;DHT22;21650;48.840;9.162;2023-01-30T06:22:21;0.50;99.90
35541;DHT22;21650;48.840;9.162;2023-01-30T06:24:47;0.50;99.90
35541;DHT22;21650;48.840;9.162;2023-01-30T06:27:12;0.50;99.90
35541;DHT22;21650;48.840;9.162;2023-01-30T06:29:38;0.50;99.90
35541;DHT22;21650;48.840;9.162;2023-01-30T06:32:04;0.50;99.90
35541;DHT22;21650;48.840;9.162;2023-01-30T06:34:30;0.50;99.90
35541;DHT22;21650;48.840;9.162;2023-01-30T06:36:55;0.60;99.90
35541;DHT22;21650;48.840;9.162;2023-01-30T06:39:21;0.50;99.90
35541;DHT22;21650;48.840;9.162;2023-01-30T06:41:47;0.60;99.90
35541;DHT22;21650;48.840;9.162;2023-01-30T06:44:12;0.60;99.90
35541;DHT22;21650;48.840;9.162;2023-01-30T06:46:38;0.60;99.90
35541;DHT22;21650;48.840;9.162;2023-01-30T06:49:03;0.60;99.90
35541;DHT22;21650;48.840;9.162;2023-01-30T06:51:29;0.60;99.90
35541;DHT22;21650;48.840;9.162;2023-01-30T06:53:55;0.60;99.90
35541;DHT22;21650;48.840;9.162;2023-01-30T06:56:20;0.60;99.90
35541;DHT22;21650;48.840;9.162;2023-01-30T06:58:46;0.70;99.90
35541;DHT22;21650;48.840;9.162;2023-01-30T07:01:11;0.70;99.90
35541;DHT22;21650;48.840;9.162;2023-01-30T07:03:37;0.70;99.90
35541;DHT22;21650;48.840;9.162;2023-01-30T07:06:03;0.80;99.90
35541;DHT22;21650;48.840;9.162;2023-01-30T07:08:28;0.80;99.90
35541;DHT22;21650;48.840;9.162;2023-01-30T07:10:54;0.80;99.90
35541;DHT22;21650;48.840;9.162;2023-01-30T07:13:19;0.80;99.90
35541;DHT22;21650;48.840;9.162;2023-01-30T07:15:45;0.80;99.90
35541;DHT22;21650;48.840;9.162;2023-01-30T07:18:11;0.80;99.90
35541;DHT22;21650;48.840;9.162;2023-01-30T07:20:37;0.80;99.90
35541;DHT22;21650;48.840;9.162;2023-01-30T07:23:03;0.90;99.90
35541;DHT22;21650;48.840;9.162;2023-01-30T07:25:29;0.80;99.90
35541;DHT22;21650;48.840;9.162;2023-01-30T07:28:01;0.80;99.90
35541;DHT22;21650;48.840;9.162;2023-01-30T07:30:29;0.90;99.90
35541;DHT22;21650;48.840;9.162;2023-01-30T07:32:57;1.00;99.90
35541;DHT22;21650;48.840;9.162;2023-01-30T07:35:24;1.10;99.90
35541;DHT22;21650;48.840;9.162;2023-01-30T07:37:50;1.10;99.90
35541;DHT22;21650;48.840;9.162;2023-01-30T07:40:19;1.10;99.90
35541;DHT22;21650;48.840;9.162;2023-01-30T07:42:58;1.10;99.90
35541;DHT22;21650;48.840;9.162;2023-01-30T07:45:24;1.10;99.90
35541;DHT22;21650;48.840;9.162;2023-01-30T07:47:50;1.20;99.90
35541;DHT22;21650;48.840;9.162;2023-01-30T07:50:16;1.20;99.90
35541;DHT22;21650;48.840;9.162;2023-01-30T07:52:42;1.20;99.90
35541;DHT22;21650;48.840;9.162;2023-01-30T07:55:07;1.30;99.90
35541;DHT22;21650;48.840;9.162;2023-01-30T07:57:33;1.20;99.90
35541;DHT22;21650;48.840;9.162;2023-01-30T07:59:58;1.20;99.90
35541;DHT22;21650;48.840;9.162;2023-01-30T08:02:24;1.30;99.90
35541;DHT22;21650;48.840;9.162;2023-01-30T08:04:49;1.30;99.90
35541;DHT22;21650;48.840;9.162;2023-01-30T08:07:15;1.30;99.90
35541;DHT22;21650;48.840;9.162;2023-01-30T08:09:41;1.40;99.90
35541;DHT22;21650;48.840;9.162;2023-01-30T08:12:06;1.40;99.90
35541;DHT22;21650;48.840;9.162;2023-01-30T08:14:32;1.40;99.90
35541;DHT22;21650;48.840;9.162;2023-01-30T08:16:57;1.50;99.90
35541;DHT22;21650;48.840;9.162;2023-01-30T08:19:23;1.40;99.90
35541;DHT22;21650;48.840;9.162;2023-01-30T08:21:48;1.40;99.90
35541;DHT22;21650;48.840;9.162;2023-01-30T08:24:14;1.40;99.90
35541;DHT22;21650;48.840;9.162;2023-01-30T08:26:40;1.40;99.90
35541;DHT22;21650;48.840;9.162;2023-01-30T08:29:05;1.40;99.90
35541;DHT22;21650;48.840;9.162;2023-01-30T08:31:31;1.40;99.90
35541;DHT22;21650;48.840;9.162;2023-01-30T08:33:56;1.50;99.90
35541;DHT22;21650;48.840;9.162;2023-01-30T08:36:22;1.50;99.90
35541;DHT22;21650;48.840;9.162;2023-01-30T08:38:47;1.60;99.90
35541;DHT22;21650;48.840;9.162;2023-01-30T08:41:13;1.70;99.90
35541;DHT22;21650;48.840;9.162;2023-01-30T08:43:39;1.70;99.90
35541;DHT22;21650;48.840;9.162;2023-01-30T08:46:04;1.70;99.90
35541;DHT22;21650;48.840;9.162;2023-01-30T08:48:30;1.70;99.90
35541;DHT22;21650;48.840;9.162;2023-01-30T08:50:57;1.80;99.90
35541;DHT22;21650;48.840;9.162;2023-01-30T08:53:22;1.90;99.90
35541;DHT22;21650;48.840;9.162;2023-01-30T08:55:52;2.00;99.90
35541;DHT22;21650;48.840;9.162;2023-01-30T08:58:19;2.00;99.90
35541;DHT22;21650;48.840;9.162;2023-01-30T09:00:45;2.10;99.90
35541;DHT22;21650;48.840;9.162;2023-01-30T09:03:12;2.20;99.90
35541;DHT22;21650;48.840;9.162;2023-01-30T09:05:38;2.40;99.90
35541;DHT22;21650;48.840;9.162;2023-01-30T09:08:04;2.50;99.90
35541;DHT22;21650;48.840;9.162;2023-01-30T09:10:29;2.60;99.90
35541;DHT22;21650;48.840;9.162;2023-01-30T09:12:55;2.70;99.90
35541;DHT22;21650;48.840;9.162;2023-01-30T09:15:21;2.80;99.90
35541;DHT22;21650;48.840;9.162;2023-01-30T09:17:46;2.80;99.90
35541;DHT22;21650;48.840;9.162;2023-01-30T09:20:12;2.90;99.90
35541;DHT22;21650;48.840;9.162;2023-01-30T09:22:38;2.90;99.90
35541;DHT22;21650;48.840;9.162;2023-01-30T09:25:04;2.90;99.90
35541;DHT22;21650;48.840;9.162;2023-01-30T09:27:31;2.90;99.90
35541;DHT22;21650;48.840;9.162;2023-01-30T09:29:56;2.90;99.90
35541;DHT22;21650;48.840;9.162;2023-01-30T09:32:22;3.00;99.90
35541;DHT22;21650;48.840;9.162;2023-01-30T09:34:47;3.00;99.90
35541;DHT22;21650;48.840;9.162;2023-01-30T09:37:13;3.00;99.90
35541;DHT22;21650;48.840;9.162;2023-01-30T09:39:39;3.00;99.90
35541;DHT22;21650;48.840;9.162;2023-01-30T09:50:59;2.90;99.90
35541;DHT22;21650;48.840;9.162;2023-01-30T09:53:36;2.90;99.90
35541;DHT22;21650;48.840;9.162;2023-01-30T09:56:03;2.90;99.90
35541;DHT22;21650;48.840;9.162;2023-01-30T09:58:48;2.90;99.90
35541;DHT22;21650;48.840;9.162;2023-01-30T10:01:22;2.90;99.90
35541;DHT22;21650;48.840;9.162;2023-01-30T10:04:20;2.90;99.90
35541;DHT22;21650;48.840;9.162;2023-01-30T10:09:56;3.00;99.90
35541;DHT22;21650;48.840;9.162;2023-01-30T10:20:47;3.20;99.90
35541;DHT22;21650;48.840;9.162;2023-01-30T10:26:14;3.20;99.90
35541;DHT22;21650;48.840;9.162;2023-01-30T10:29:32;3.30;99.90
35541;DHT22;21650;48.840;9.162;2023-01-30T10:31:39;3.30;99.90
35541;DHT22;21650;48.840;9.162;2023-01-30T10:34:12;3.30;99.90
35541;DHT22;21650;48.840;9.162;2023-01-30T10:37:07;3.30;99.90
35541;DHT22;21650;48.840;9.162;2023-01-30T10:42:14;3.30;99.90
35541;DHT22;21650;48.840;9.162;2023-01-30T10:44:44;3.30;99.90
35541;DHT22;21650;48.840;9.162;2023-01-30T10:49:58;3.40;99.90
35541;DHT22;21650;48.840;9.162;2023-01-30T10:54:59;3.40;99.90
35541;DHT22;21650;48.840;9.162;2023-01-30T10:58:00;3.40;99.90
35541;DHT22;21650;48.840;9.162;2023-01-30T11:03:21;3.50;99.90
35541;DHT22;21650;48.840;9.162;2023-01-30T11:05:51;3.50;99.90
35541;DHT22;21650;48.840;9.162;2023-01-30T11:08:21;3.60;99.90
35541;DHT22;21650;48.840;9.162;2023-01-30T11:10:48;3.70;99.90
35541;DHT22;21650;48.840;9.162;2023-01-30T11:13:26;3.60;99.90
35541;DHT22;21650;48.840;9.162;2023-01-30T11:15:58;3.60;99.90
35541;DHT22;21650;48.840;9.162;2023-01-30T11:18:25;3.60;99.90
35541;DHT22;21650;48.840;9.162;2023-01-30T11:23:25;3.50;99.90
35541;DHT22;21650;48.840;9.162;2023-01-30T11:25:54;3.50;99.90
35541;DHT22;21650;48.840;9.162;2023-01-30T11:28:20;3.50;99.90
35541;DHT22;21650;48.840;9.162;2023-01-30T11:30:58;3.50;99.90
35541;DHT22;21650;48.840;9.162;2023-01-30T11:33:32;3.50;99.90
35541;DHT22;21650;48.840;9.162;2023-01-30T11:36:02;3.50;99.90
35541;DHT22;21650;48.840;9.162;2023-01-30T11:38:30;3.50;99.90
35541;DHT22;21650;48.840;9.162;2023-01-30T11:43:37;3.40;99.90
35541;DHT22;21650;48.840;9.162;2023-01-30T11:46:06;3.40;99.90
35541;DHT22;21650;48.840;9.162;2023-01-30T11:48:33;3.30;99.90
35541;DHT22;21650;48.840;9.162;2023-01-30T11:51:02;3.30;99.90
35541;DHT22;21650;48.840;9.162;2023-01-30T11:56:19;3.40;99.90
35541;DHT22;21650;48.840;9.162;2023-01-30T11:58:52;3.30;99.90
35541;DHT22;21650;48.840;9.162;2023-01-30T12:01:28;3.30;99.90
35541;DHT22;21650;48.840;9.162;2023-01-30T12:03:55;3.40;99.90
35541;DHT22;21650;48.840;9.162;2023-01-30T12:06:33;3.40;99.90
35541;DHT22;21650;48.840;9.162;2023-01-30T12:08:59;3.40;99.90
35541;DHT22;21650;48.840;9.162;2023-01-30T12:17:21;3.40;99.90
35541;DHT22;21650;48.840;9.162;2023-01-30T12:20:12;3.50;99.90
35541;DHT22;21650;48.840;9.162;2023-01-30T12:23:04;3.40;99.90
35541;DHT22;21650;48.840;9.162;2023-01-30T12:25:38;3.40;99.90
35541;DHT22;21650;48.840;9.162;2023-01-30T12:28:24;3.40;99.90
35541;DHT22;21650;48.840;9.162;2023-01-30T12:33:41;3.40;99.90
35541;DHT22;21650;48.840;9.162;2023-01-30T12:39:04;3.40;99.90
35541;DHT22;21650;48.840;9.162;2023-01-30T12:42:02;3.40;99.90
35541;DHT22;21650;48.840;9.162;2023-01-30T12:44:44;3.40;99.90
35541;DHT22;21650;48.840;9.162;2023-01-30T12:47:48;3.40;99.90
35541;DHT22;21650;48.840;9.162;2023-01-30T13:09:56;3.30;99.90
35541;DHT22;21650;48.840;9.162;2023-01-30T13:15:24;3.40;99.90
35541;DHT22;21650;48.840;9.162;2023-01-30T13:18:03;3.40;99.90
35541;DHT22;21650;48.840;9.162;2023-01-30T13:20:43;3.50;99.90
35541;DHT22;21650;48.840;9.162;2023-01-30T13:26:22;3.50;99.90
35541;DHT22;21650;48.840;9.162;2023-01-30T13:28:55;3.60;99.90
35541;DHT22;21650;48.840;9.162;2023-01-30T13:31:25;3.80;99.90
35541;DHT22;21650;48.840;9.162;2023-01-30T13:34:29;3.90;99.90
35541;DHT22;21650;48.840;9.162;2023-01-30T13:37:00;3.90;99.90
35541;DHT22;21650;48.840;9.162;2023-01-30T13:39:46;4.00;99.90
35541;DHT22;21650;48.840;9.162;2023-01-30T13:44:53;4.20;99.90
35541;DHT22;21650;48.840;9.162;2023-01-30T13:47:38;4.30;99.90
35541;DHT22;21650;48.840;9.162;2023-01-30T13:50:29;4.30;99.90
35541;DHT22;21650;48.840;9.162;2023-01-30T13:53:11;4.40;99.90
35541;DHT22;21650;48.840;9.162;2023-01-30T14:01:01;4.30;99.90
35541;DHT22;21650;48.840;9.162;2023-01-30T14:03:31;4.30;99.90
35541;DHT22;21650;48.840;9.162;2023-01-30T14:05:58;4.30;99.90
35541;DHT22;21650;48.840;9.162;2023-01-30T14:11:01;4.30;99.90
35541;DHT22;21650;48.840;9.162;2023-01-30T14:13:27;4.30;99.90
35541;DHT22;21650;48.840;9.162;2023-01-30T14:16:03;4.20;99.90
35541;DHT22;21650;48.840;9.162;2023-01-30T14:18:34;4.20;99.90
35541;DHT22;21650;48.840;9.162;2023-01-30T14:21:21;4.20;99.90
35541;DHT22;21650;48.840;9.162;2023-01-30T14:23:55;4.20;99.90
35541;DHT22;21650;48.840;9.162;2023-01-30T14:46:04;4.10;99.90
35541;DHT22;21650;48.840;9.162;2023-01-30T14:59:35;4.00;99.90
35541;DHT22;21650;48.840;9.162;2023-01-30T15:20:42;4.10;99.90
35541;DHT22;21650;48.840;9.162;2023-01-30T15:26:23;4.00;99.90
35541;DHT22;21650;48.840;9.162;2023-01-30T15:31:55;3.90;99.90
35541;DHT22;21650;48.840;9.162;2023-01-30T15:34:22;3.90;99.90
35541;DHT22;21650;48.840;9.162;2023-01-30T15:36:47;3.90;99.90
35541;DHT22;21650;48.840;9.162;2023-01-30T15:39:21;3.90;99.90
35541;DHT22;21650;48.840;9.162;2023-01-30T15:41:48;3.80;99.90
35541;DHT22;21650;48.840;9.162;2023-01-30T15:44:33;3.80;99.90
35541;DHT22;21650;48.840;9.162;2023-01-30T15:50:08;3.90;99.90
35541;DHT22;21650;48.840;9.162;2023-01-30T15:55:04;3.80;99.90
35541;DHT22;21650;48.840;9.162;2023-01-30T15:57:34;3.80;99.90
35541;DHT22;21650;48.840;9.162;2023-01-30T16:00:03;3.80;99.90
35541;DHT22;21650;48.840;9.162;2023-01-30T16:02:34;3.80;99.90
35541;DHT22;21650;48.840;9.162;2023-01-30T16:05:05;3.70;99.90
35541;DHT22;21650;48.840;9.162;2023-01-30T16:07:31;3.80;99.90
35541;DHT22;21650;48.840;9.162;2023-01-30T16:09:59;3.70;99.90
35541;DHT22;21650;48.840;9.162;2023-01-30T16:12:29;3.70;99.90
35541;DHT22;21650;48.840;9.162;2023-01-30T16:14:55;3.70;99.90
35541;DHT22;21650;48.840;9.162;2023-01-30T16:17:26;3.70;99.90
35541;DHT22;21650;48.840;9.162;2023-01-30T16:19:53;3.70;99.90
35541;DHT22;21650;48.840;9.162;2023-01-30T16:22:19;3.70;99.90
35541;DHT22;21650;48.840;9.162;2023-01-30T16:24:49;3.80;99.90
35541;DHT22;21650;48.840;9.162;2023-01-30T16:27:27;3.80;99.90
35541;DHT22;21650;48.840;9.162;2023-01-30T16:29:56;3.80;99.90
35541;DHT22;21650;48.840;9.162;2023-01-30T16:32:26;3.80;99.90
35541;DHT22;21650;48.840;9.162;2023-01-30T16:35:34;3.80;99.90
35541;DHT22;21650;48.840;9.162;2023-01-30T16:38:33;3.80;99.90
35541;DHT22;21650;48.840;9.162;2023-01-30T16:40:59;3.80;99.90
35541;DHT22;21650;48.840;9.162;2023-01-30T16:43:26;3.70;99.90
35541;DHT22;21650;48.840;9.162;2023-01-30T16:53:34;3.70;99.90
35541;DHT22;21650;48.840;9.162;2023-01-30T16:56:03;3.70;99.90
35541;DHT22;21650;48.840;9.162;2023-01-30T16:58:32;3.70;99.90
35541;DHT22;21650;48.840;9.162;2023-01-30T17:01:04;3.70;99.90
35541;DHT22;21650;48.840;9.162;2023-01-30T17:03:40;3.70;99.90
35541;DHT22;21650;48.840;9.162;2023-01-30T17:06:20;3.60;99.90
35541;DHT22;21650;48.840;9.162;2023-01-30T17:08:53;3.60;99.90
35541;DHT22;21650;48.840;9.162;2023-01-30T17:17:03;3.40;99.90
35541;DHT22;21650;48.840;9.162;2023-01-30T17:19:30;3.40;99.90
35541;DHT22;21650;48.840;9.162;2023-01-30T17:21:57;3.40;99.90
35541;DHT22;21650;48.840;9.162;2023-01-30T17:24:24;3.40;99.90
35541;DHT22;21650;48.840;9.162;2023-01-30T17:26:55;3.40;99.90
35541;DHT22;21650;48.840;9.162;2023-01-30T17:29:27;3.30;99.90
35541;DHT22;21650;48.840;9.162;2023-01-30T17:31:53;3.40;99.90
35541;DHT22;21650;48.840;9.162;2023-01-30T17:34:20;3.30;99.90
35541;DHT22;21650;48.840;9.162;2023-01-30T17:36:47;3.30;99.90
35541;DHT22;21650;48.840;9.162;2023-01-30T17:39:15;3.30;99.90
35541;DHT22;21650;48.840;9.162;2023-01-30T17:41:42;3.30;99.90
35541;DHT22;21650;48.840;9.162;2023-01-30T17:44:08;3.30;99.90
35541;DHT22;21650;48.840;9.162;2023-01-30T17:46:40;3.30;99.90
35541;DHT22;21650;48.840;9.162;2023-01-30T17:49:26;3.20;99.90
35541;DHT22;21650;48.840;9.162;2023-01-30T17:51:52;3.20;99.90
35541;DHT22;21650;48.840;9.162;2023-01-30T17:54:18;3.10;99.90
35541;DHT22;21650;48.840;9.162;2023-01-30T17:56:47;3.10;99.90
35541;DHT22;21650;48.840;9.162;2023-01-30T17:59:17;3.10;99.90
35541;DHT22;21650;48.840;9.162;2023-01-30T18:01:45;3.10;99.90
35541;DHT22;21650;48.840;9.162;2023-01-30T18:04:11;3.10;99.90
35541;DHT22;21650;48.840;9.162;2023-01-30T18:06:38;3.10;99.90
35541;DHT22;21650;48.840;9.162;2023-01-30T18:09:04;3.10;99.90
35541;DHT22;21650;48.840;9.162;2023-01-30T18:11:30;3.10;99.90
35541;DHT22;21650;48.840;9.162;2023-01-30T18:13:56;3.10;99.90
35541;DHT22;21650;48.840;9.162;2023-01-30T18:16:27;3.10;99.90
35541;DHT22;21650;48.840;9.162;2023-01-30T18:18:56;3.10;99.90
35541;DHT22;21650;48.840;9.162;2023-01-30T18:21:22;3.10;99.90
35541;DHT22;21650;48.840;9.162;2023-01-30T18:23:48;3.10;99.90
35541;DHT22;21650;48.840;9.162;2023-01-30T18:26:15;3.20;99.90
35541;DHT22;21650;48.840;9.162;2023-01-30T18:28:41;3.10;99.90
35541;DHT22;21650;48.840;9.162;2023-01-30T18:31:08;3.20;99.90
35541;DHT22;21650;48.840;9.162;2023-01-30T18:33:35;3.20;99.90
35541;DHT22;21650;48.840;9.162;2023-01-30T18:36:06;3.20;99.90
35541;DHT22;21650;48.840;9.162;2023-01-30T18:38:32;3.20;99.90
35541;DHT22;21650;48.840;9.162;2023-01-30T18:40:58;3.30;99.90
35541;DHT22;21650;48.840;9.162;2023-01-30T18:43:23;3.30;99.90
35541;DHT22;21650;48.840;9.162;2023-01-30T18:45:49;3.30;99.90
35541;DHT22;21650;48.840;9.162;2023-01-30T18:48:15;3.40;99.90
35541;DHT22;21650;48.840;9.162;2023-01-30T18:50:40;3.40;99.90
35541;DHT22;21650;48.840;9.162;2023-01-30T18:53:06;3.40;99.90
35541;DHT22;21650;48.840;9.162;2023-01-30T18:55:32;3.40;99.90
35541;DHT22;21650;48.840;9.162;2023-01-30T18:57:58;3.50;99.90
35541;DHT22;21650;48.840;9.162;2023-01-30T19:00:24;3.50;99.90
35541;DHT22;21650;48.840;9.162;2023-01-30T19:02:51;3.50;99.90
35541;DHT22;21650;48.840;9.162;2023-01-30T19:05:17;3.50;99.90